Time;durP1;ratioP1;P1;durP2;ratioP2;P2;SDS_P1;SDS_P2;PMS_P1;PMS_P2;Temp;Humidity;BMP_temperature;BMP_pressure;BME280_temperature;BME280_humidity;BME280_pressure;Samples;Min_cycle;Max_cycle;Signal;HPM_P1;HPM_P2
2022/10/14 09:25:24;;;;;;;10.07;5.78;;;18.20;84.40;;;;;;7374819;19;20021;-80
2022/10/14 09:28:02;;;;;;;20.92;12.43;;;18.20;84.20;;;;;;7398232;19;20069;-80
2022/10/14 09:30:37;;;;;;;24.38;13.10;;;18.30;84.80;;;;;;7376284;19;20112;-80
2022/10/14 09:33:16;;;;;;;13.25;5.80;;;18.30;83.80;;;;;;7375697;19;20037;-80
2022/10/14 09:35:47;;;;;;;6.68;3.20;;;18.30;83.50;;;;;;7376954;19;20046;-77
2022/10/14 09:38:20;;;;;;;4.40;2.72;;;18.40;83.90;;;;;;7378694;19;20011;-77
2022/10/14 09:41:01;;;;;;;7.28;3.00;;;18.40;84.30;;;;;;7377683;19;20018;-79
2022/10/14 09:43:30;;;;;;;8.23;2.50;;;18.40;84.50;;;;;;7402571;19;20014;-78
2022/10/14 09:46:06;;;;;;;7.07;3.17;;;18.50;84.40;;;;;;7383568;19;20011;-78
2022/10/14 09:48:39;;;;;;;5.55;3.00;;;18.50;84.20;;;;;;7382917;19;20015;-78
2022/10/14 09:51:10;;;;;;;4.70;3.42;;;18.50;83.90;;;;;;7383119;19;20018;-79
2022/10/14 09:53:50;;;;;;;5.43;2.95;;;18.50;84.20;;;;;;7381166;19;20102;-80
2022/10/14 09:56:48;;;;;;;6.85;2.58;;;18.50;84.10;;;;;;7384102;19;20407;-79
2022/10/14 09:59:24;;;;;;;4.53;2.97;;;18.50;83.80;;;;;;7380041;19;20010;-79
2022/10/14 10:05:21;;;;;;;3.63;1.95;;;18.50;83.80;;;;;;7365347;19;20126;-79
2022/10/14 10:08:13;;;;;;;4.82;2.10;;;18.60;83.10;;;;;;7373406;19;20082;-81
2022/10/14 10:11:17;;;;;;;3.75;2.38;;;18.60;83.30;;;;;;7369844;19;20044;-81
2022/10/14 10:13:51;;;;;;;3.33;2.25;;;18.60;84.10;;;;;;7373477;19;20015;-80
2022/10/14 10:16:25;;;;;;;4.20;2.42;;;18.70;84.40;;;;;;7401378;19;20018;-80
2022/10/14 10:19:00;;;;;;;3.08;2.25;;;18.60;82.70;;;;;;7375404;19;20338;-80
2022/10/14 10:21:37;;;;;;;4.68;2.90;;;18.60;82.60;;;;;;7372938;19;20078;-79
2022/10/14 10:24:32;;;;;;;5.82;2.67;;;18.60;82.20;;;;;;7375546;19;20010;-80
2022/10/14 10:30:24;;;;;;;8.80;2.90;;;18.60;82.70;;;;;;7375048;19;20070;-79
2022/10/14 10:33:21;;;;;;;2.90;2.35;;;18.50;83.20;;;;;;7367108;19;20093;-79
2022/10/14 10:36:19;;;;;;;6.78;3.80;;;18.60;83.70;;;;;;7371956;19;20039;-80
2022/10/14 10:39:00;;;;;;;5.90;4.22;;;18.70;83.80;;;;;;7370252;19;20006;-80
2022/10/14 10:42:20;;;;;;;6.77;5.03;;;18.80;84.40;;;;;;7368484;19;20030;-80
2022/10/14 10:45:06;;;;;;;101.80;57.13;;;18.80;84.80;;;;;;7377318;19;20046;-78
2022/10/14 10:47:44;;;;;;;47.25;25.83;;;19.00;85.00;;;;;;7367610;19;20024;-79
2022/10/14 10:50:41;;;;;;;31.38;17.73;;;19.00;83.70;;;;;;7378282;19;20519;-82
2022/10/14 10:53:34;;;;;;;18.40;11.52;;;19.00;84.40;;;;;;7371727;19;20076;-79
2022/10/14 10:56:17;;;;;;;15.10;8.48;;;19.10;84.10;;;;;;7368400;19;20025;-80
2022/10/14 10:59:02;;;;;;;9.80;6.22;;;19.00;83.30;;;;;;7373322;19;20015;-80
2022/10/14 11:02:10;;;;;;;6.05;3.50;;;19.00;83.40;;;;;;7395775;19;20445;-82
2022/10/14 16:59:31;;;;;;;6.47;4.57;;;19.40;90.50;;;;;;7275823;19;2004707;-78
2022/10/14 17:02:10;;;;;;;3.95;3.47;;;19.50;90.30;;;;;;7363420;19;20139;-78
2022/10/14 17:04:50;;;;;;;8.30;4.70;;;19.50;90.40;;;;;;7378039;19;20014;-78
2022/10/14 17:07:25;;;;;;;5.75;3.50;;;19.50;90.30;;;;;;7391613;19;20035;-78
2022/10/14 17:10:17;;;;;;;4.43;3.78;;;19.50;90.40;;;;;;7354455;19;20018;-78
2022/10/14 17:13:11;;;;;;;4.95;3.65;;;19.50;90.50;;;;;;7351721;19;20080;-79
2022/10/14 17:15:47;;;;;;;15.68;8.95;;;19.50;90.50;;;;;;7373546;19;20105;-78
2022/10/14 17:18:16;;;;;;;11.38;5.95;;;19.50;90.50;;;;;;7369902;19;20010;-75
2022/10/14 17:20:46;;;;;;;7.53;3.90;;;19.50;90.50;;;;;;7371023;19;20110;-76
2022/10/14 17:23:15;;;;;;;10.13;3.92;;;19.50;90.50;;;;;;7372754;19;20014;-76
2022/10/14 17:25:46;;;;;;;5.70;2.65;;;19.50;90.50;;;;;;7372152;19;20044;-75
2022/10/14 17:28:14;;;;;;;6.57;4.38;;;19.50;90.60;;;;;;7391602;19;20018;-76
2022/10/14 17:30:46;;;;;;;5.45;3.47;;;19.50;90.60;;;;;;7370183;19;20106;-75
2022/10/14 17:33:15;;;;;;;2.72;1.98;;;19.50;90.70;;;;;;7368721;19;20018;-75
2022/10/14 17:35:44;;;;;;;2.08;1.83;;;19.40;90.80;;;;;;7369678;19;20022;-76
2022/10/14 17:38:13;;;;;;;4.70;1.85;;;19.20;91.20;;;;;;7369887;19;20014;-79
2022/10/14 17:40:42;;;;;;;3.25;1.98;;;19.20;91.40;;;;;;7366043;19;20774;-76
2022/10/14 17:43:12;;;;;;;2.72;2.30;;;19.20;91.50;;;;;;7392587;19;20018;-76
2022/10/14 17:45:41;;;;;;;4.93;2.10;;;19.30;91.30;;;;;;7369312;19;20477;-77
2022/10/14 17:48:12;;;;;;;5.80;2.38;;;19.20;91.30;;;;;;7368964;19;20047;-79
2022/10/14 17:50:41;;;;;;;;;;;19.20;91.30;;;;;;7371320;19;20010;-76
2022/10/14 17:53:11;;;;;;;5.55;2.42;;;19.30;91.20;;;;;;7370713;19;19950;-78
2022/10/14 17:55:40;;;;;;;5.32;2.60;;;19.20;91.20;;;;;;7369035;19;20761;-77
2022/10/14 17:58:09;;;;;;;4.43;2.40;;;19.20;91.20;;;;;;7390778;19;20482;-77
2022/10/14 18:00:37;;;;;;;7.88;2.75;;;19.10;91.00;;;;;;7369130;19;20034;-76
2022/10/14 18:03:07;;;;;;;10.25;2.90;;;19.00;91.40;;;;;;7370486;19;20018;-76
2022/10/14 18:05:39;;;;;;;8.75;2.50;;;19.10;91.20;;;;;;7368856;19;20509;-77
2022/10/14 18:08:09;;;;;;;5.40;2.42;;;19.00;91.40;;;;;;7370906;19;20014;-77
2022/10/14 18:10:38;;;;;;;5.05;2.53;;;19.10;91.30;;;;;;7369437;19;20015;-77
2022/10/14 18:13:07;;;;;;;7.93;2.33;;;19.20;91.00;;;;;;7388617;19;20094;-77
2022/10/14 18:15:36;;;;;;;9.93;2.55;;;19.20;91.00;;;;;;7368885;19;20019;-76
2022/10/14 18:18:05;;;;;;;11.95;2.70;;;19.30;90.80;;;;;;7369158;19;20027;-77
2022/10/14 18:20:37;;;;;;;5.68;2.50;;;19.20;90.80;;;;;;7369140;19;20019;-76
2022/10/14 18:23:09;;;;;;;5.25;2.38;;;19.30;90.70;;;;;;7370828;19;20070;-77
2022/10/14 18:25:38;;;;;;;5.18;2.45;;;19.30;90.60;;;;;;7369208;19;20182;-76
2022/10/14 18:28:07;;;;;;;13.85;2.53;;;19.30;90.70;;;;;;7389802;19;20037;-76
2022/10/14 18:30:37;;;;;;;8.45;3.10;;;19.30;90.60;;;;;;7368703;19;20295;-76
2022/10/14 18:33:05;;;;;;;8.80;2.80;;;19.20;90.60;;;;;;7369186;19;20420;-77
2022/10/14 18:35:35;;;;;;;13.10;2.72;;;19.20;90.70;;;;;;7368445;19;20024;-76
2022/10/14 18:38:04;;;;;;;10.73;2.53;;;19.20;90.90;;;;;;7369809;19;20016;-76
2022/10/14 18:40:36;;;;;;;8.55;2.53;;;18.90;91.00;;;;;;7369320;19;20015;-77
2022/10/14 18:43:06;;;;;;;4.60;2.08;;;19.00;91.00;;;;;;7390748;19;20031;-78
2022/10/14 18:45:36;;;;;;;4.75;2.60;;;19.10;90.80;;;;;;7359245;19;20057;-76
2022/10/14 18:48:05;;;;;;;8.02;2.58;;;19.20;90.60;;;;;;7367649;19;20011;-77
2022/10/14 18:50:34;;;;;;;7.28;2.42;;;19.10;90.70;;;;;;7369646;19;20010;-77
2022/10/14 18:53:03;;;;;;;6.10;2.40;;;19.20;90.60;;;;;;7365685;19;20045;-77
2022/10/14 18:55:31;;;;;;;4.78;2.33;;;19.30;90.50;;;;;;7378781;19;20039;-77
2022/10/14 18:58:03;;;;;;;9.25;2.55;;;19.30;90.40;;;;;;7385859;19;20015;-78
2022/10/14 19:00:32;;;;;;;;;;;19.30;90.30;;;;;;7360594;19;20584;-77
2022/10/14 19:03:01;;;;;;;6.18;2.38;;;19.40;90.30;;;;;;7367752;19;19918;-78
2022/10/14 19:05:31;;;;;;;7.35;2.35;;;19.40;90.10;;;;;;7367367;19;20022;-77
2022/10/14 19:08:01;;;;;;;5.35;2.65;;;19.10;90.50;;;;;;7366991;19;20025;-77
2022/10/14 19:10:30;;;;;;;4.22;2.20;;;19.10;90.50;;;;;;7389412;19;20026;-77
2022/10/14 19:12:59;;;;;;;3.90;2.35;;;19.20;90.40;;;;;;7367061;19;20653;-77
2022/10/14 19:15:40;;;;;;;12.30;2.60;;;19.20;90.30;;;;;;7365916;19;20022;-76
2022/10/14 19:18:09;;;;;;;12.55;2.28;;;19.10;90.50;;;;;;7366149;19;20057;-77
2022/10/14 19:20:40;;;;;;;7.50;2.25;;;19.20;90.50;;;;;;7368585;19;20014;-77
2022/10/14 19:23:09;;;;;;;8.65;2.55;;;19.20;90.40;;;;;;7366737;19;20010;-77
2022/10/14 19:25:38;;;;;;;6.07;2.45;;;19.20;90.40;;;;;;7361556;19;20028;-77
2022/10/14 19:28:08;;;;;;;9.68;3.25;;;19.20;90.40;;;;;;7387114;19;20018;-76
2022/10/14 19:30:39;;;;;;;7.50;2.50;;;19.00;90.60;;;;;;7365056;19;20047;-77
2022/10/14 19:33:08;;;;;;;;;;;19.00;90.80;;;;;;7367642;19;20018;-76
2022/10/14 19:35:37;;;;;;;5.72;2.88;;;19.00;91.00;;;;;;7366544;19;20365;-77
2022/10/14 19:38:05;;;;;;;10.38;2.90;;;18.90;91.00;;;;;;7366441;19;20059;-77
2022/10/14 19:40:34;;;;;;;4.95;1.98;;;18.80;91.00;;;;;;7364720;19;20043;-76
2022/10/14 19:43:06;;;;;;;3.67;1.83;;;18.90;91.40;;;;;;7385423;19;20018;-76
2022/10/14 19:45:35;;;;;;;3.42;1.90;;;18.90;91.00;;;;;;7365759;19;20942;-77
2022/10/14 19:48:06;;;;;;;3.22;1.95;;;18.90;91.00;;;;;;7365712;19;20015;-76
2022/10/14 19:50:35;;;;;;;8.07;2.40;;;18.70;90.80;;;;;;7364484;19;20015;-77
2022/10/14 19:53:04;;;;;;;2.65;2.22;;;18.90;91.20;;;;;;7364128;19;20354;-76
2022/10/14 19:55:33;;;;;;;5.38;2.40;;;19.00;90.60;;;;;;7365395;19;20025;-77
2022/10/14 19:58:02;;;;;;;5.00;2.55;;;18.90;90.40;;;;;;7384126;19;20029;-76
2022/10/14 20:00:30;;;;;;;6.35;2.22;;;18.70;90.40;;;;;;7364680;19;20026;-76
2022/10/14 20:03:00;;;;;;;3.33;2.17;;;18.80;90.50;;;;;;7365265;19;20078;-76
2022/10/14 20:05:32;;;;;;;6.40;2.50;;;18.70;90.40;;;;;;7365992;19;20094;-76
2022/10/14 20:08:01;;;;;;;6.75;2.70;;;18.70;90.40;;;;;;7363705;19;20018;-76
2022/10/14 20:10:30;;;;;;;4.30;2.60;;;18.80;90.30;;;;;;7385855;19;20019;-75
2022/10/14 20:12:59;;;;;;;3.42;2.78;;;18.80;90.10;;;;;;7371934;19;20077;-75
2022/10/14 20:15:27;;;;;;;5.28;3.20;;;18.70;90.10;;;;;;7371309;19;20022;-75
2022/10/14 20:17:56;;;;;;;6.63;3.30;;;18.80;90.00;;;;;;7371210;19;20032;-76
2022/10/14 20:20:25;;;;;;;7.90;3.20;;;18.90;90.00;;;;;;7369234;19;20026;-75
2022/10/14 20:22:56;;;;;;;6.85;3.72;;;18.80;89.50;;;;;;7371294;19;20132;-76
2022/10/14 20:25:26;;;;;;;5.57;3.13;;;18.70;90.00;;;;;;7392651;19;20592;-77
2022/10/14 20:27:54;;;;;;;6.15;3.60;;;18.80;90.00;;;;;;7370031;19;20022;-76
2022/10/14 20:30:26;;;;;;;8.23;4.40;;;18.90;89.90;;;;;;7370121;19;20106;-76
2022/10/14 20:32:55;;;;;;;7.22;3.90;;;18.90;89.60;;;;;;7373378;19;20254;-76
2022/10/14 20:35:24;;;;;;;5.80;3.72;;;18.70;89.90;;;;;;7372233;19;20015;-76
2022/10/14 20:37:52;;;;;;;4.75;3.83;;;18.80;89.20;;;;;;7372508;19;20039;-75
2022/10/14 20:40:24;;;;;;;8.85;4.20;;;18.80;89.10;;;;;;7390957;19;20389;-76
2022/10/14 20:42:53;;;;;;;5.80;3.90;;;18.80;89.10;;;;;;7371012;19;20011;-75
2022/10/14 20:45:21;;;;;;;6.32;3.85;;;18.70;88.50;;;;;;7370590;19;20028;-76
2022/10/14 20:47:51;;;;;;;5.97;3.33;;;18.60;88.60;;;;;;7369198;19;20117;-76
2022/10/14 20:50:21;;;;;;;4.60;3.30;;;18.60;88.80;;;;;;7370098;19;20022;-76
2022/10/14 20:52:50;;;;;;;5.35;3.30;;;18.60;88.60;;;;;;7369765;19;20357;-77
2022/10/14 20:55:19;;;;;;;4.82;2.95;;;18.50;89.10;;;;;;7390670;19;20870;-76
2022/10/14 20:57:50;;;;;;;4.93;2.97;;;18.40;88.90;;;;;;7371149;19;20019;-76
2022/10/14 21:00:23;;;;;;;4.32;3.22;;;18.30;88.80;;;;;;7371135;19;20097;-76
2022/10/14 21:02:54;;;;;;;4.50;3.00;;;18.10;89.20;;;;;;7368093;19;20097;-76
2022/10/14 21:05:22;;;;;;;;;;;18.30;89.00;;;;;;7370752;19;20089;-76
2022/10/14 21:07:52;;;;;;;4.30;3.17;;;18.30;88.80;;;;;;7368401;19;19938;-81
2022/10/14 21:10:21;;;;;;;7.32;3.65;;;18.10;89.30;;;;;;7387993;19;20022;-77
2022/10/14 21:12:53;;;;;;;4.80;3.03;;;18.20;89.00;;;;;;7369538;19;20658;-75
2022/10/14 21:15:25;;;;;;;3.67;2.78;;;18.20;89.10;;;;;;7368958;19;20014;-74
2022/10/14 21:17:54;;;;;;;3.53;2.55;;;18.20;88.90;;;;;;7369082;19;20011;-75
2022/10/14 21:20:23;;;;;;;4.65;2.88;;;18.30;88.60;;;;;;7369977;19;20018;-75
2022/10/14 21:22:52;;;;;;;3.83;3.00;;;18.20;87.70;;;;;;7362891;19;20004;-75
2022/10/14 21:25:20;;;;;;;3.30;3.00;;;18.20;88.30;;;;;;7390908;19;20018;-75
2022/10/14 21:27:49;;;;;;;3.50;3.13;;;18.30;88.10;;;;;;7369487;19;20027;-75
2022/10/14 21:30:20;;;;;;;5.15;3.92;;;18.40;88.00;;;;;;7366387;19;20090;-75
2022/10/14 21:32:49;;;;;;;7.60;3.75;;;18.40;87.80;;;;;;7363231;19;20094;-75
2022/10/14 21:35:18;;;;;;;5.45;3.92;;;18.40;87.60;;;;;;7362510;19;21101;-75
2022/10/14 21:37:47;;;;;;;5.68;4.10;;;18.50;87.50;;;;;;7362811;19;20484;-76
2022/10/14 21:40:15;;;;;;;4.75;3.75;;;18.30;87.50;;;;;;7385142;19;20048;-76
2022/10/14 21:42:44;;;;;;;9.00;4.45;;;18.30;87.60;;;;;;7357243;19;20018;-76
2022/10/14 21:45:13;;;;;;;9.57;4.38;;;18.30;87.60;;;;;;7353392;19;20022;-76
2022/10/14 21:47:44;;;;;;;7.32;4.45;;;18.50;87.50;;;;;;7351288;19;20019;-75
2022/10/14 21:50:13;;;;;;;8.38;4.75;;;18.50;87.50;;;;;;7352866;19;20354;-75
2022/10/14 21:52:42;;;;;;;7.55;5.07;;;18.60;87.40;;;;;;7352541;19;20022;-75
2022/10/14 21:55:11;;;;;;;6.07;4.85;;;18.60;87.00;;;;;;7373377;19;20021;-75
2022/10/14 21:57:40;;;;;;;7.13;5.35;;;18.60;87.00;;;;;;7353324;19;20011;-76
2022/10/14 22:00:11;;;;;;;7.20;4.90;;;18.60;87.00;;;;;;7350580;19;20086;-76
2022/10/14 22:02:39;;;;;;;5.70;4.75;;;18.60;87.00;;;;;;7365000;19;20052;-75
2022/10/14 22:05:11;;;;;;;6.38;4.88;;;18.70;87.10;;;;;;7365497;19;20015;-75
2022/10/14 22:07:43;;;;;;;8.65;5.35;;;18.70;87.20;;;;;;7366464;19;20022;-75
2022/10/14 22:10:39;;;;;;;7.97;5.45;;;18.70;86.90;;;;;;7387081;19;20022;-75
2022/10/14 22:13:01;;;;;;;9.68;5.30;;;18.70;87.10;;;;;;7367832;19;20030;-75
2022/10/14 22:15:30;;;;;;;10.68;5.63;;;18.80;86.90;;;;;;7363526;19;20014;-76
2022/10/14 22:17:59;;;;;;;8.80;5.43;;;18.80;86.90;;;;;;7367569;19;20636;-75
2022/10/14 22:20:30;;;;;;;11.52;5.47;;;18.80;87.10;;;;;;7365530;19;20021;-75
2022/10/14 22:22:58;;;;;;;;;;;18.80;86.90;;;;;;7367254;19;20014;-75
2022/10/14 22:25:27;;;;;;;7.30;5.32;;;18.90;87.10;;;;;;7388368;19;19930;-76
2022/10/14 22:27:56;;;;;;;12.48;5.22;;;18.80;86.90;;;;;;7365963;19;20491;-75
2022/10/14 22:30:25;;;;;;;10.98;5.28;;;18.90;87.20;;;;;;7365285;19;20017;-75
2022/10/14 22:32:54;;;;;;;11.98;5.30;;;18.90;87.40;;;;;;7366213;19;20600;-75
2022/10/14 22:35:23;;;;;;;8.23;4.90;;;18.90;87.30;;;;;;7365636;19;20022;-76
2022/10/14 22:37:55;;;;;;;7.07;4.63;;;18.90;87.00;;;;;;7365652;19;20456;-75
2022/10/14 22:40:23;;;;;;;9.50;5.35;;;18.90;87.20;;;;;;7388327;19;20122;-77
2022/10/14 22:42:53;;;;;;;13.20;6.35;;;19.00;87.30;;;;;;7364843;19;20025;-75
2022/10/14 22:45:21;;;;;;;8.75;5.65;;;19.00;87.30;;;;;;7363522;19;20011;-75
2022/10/14 22:47:50;;;;;;;12.35;6.60;;;19.00;87.20;;;;;;7366246;19;20033;-75
2022/10/14 22:50:19;;;;;;;10.90;6.00;;;19.00;87.20;;;;;;7367693;19;20025;-75
2022/10/14 22:52:47;;;;;;;10.15;5.88;;;19.00;87.10;;;;;;7363798;19;20087;-75
2022/10/14 22:55:19;;;;;;;8.60;5.78;;;19.00;87.10;;;;;;7388371;19;20029;-76
2022/10/14 22:57:47;;;;;;;;;;;19.00;86.90;;;;;;7366817;19;20019;-75
2022/10/14 23:00:17;;;;;;;10.20;6.10;;;19.00;87.20;;;;;;7365905;19;19919;-75
2022/10/14 23:02:47;;;;;;;8.98;6.22;;;19.00;86.90;;;;;;7364945;19;20109;-75
2022/10/14 23:05:16;;;;;;;14.98;7.05;;;19.00;87.10;;;;;;7366129;19;20579;-75
2022/10/14 23:07:44;;;;;;;13.63;6.88;;;19.00;87.30;;;;;;7363586;19;20014;-77
2022/10/14 23:10:13;;;;;;;12.27;6.07;;;19.00;87.20;;;;;;7388270;19;20473;-75
2022/10/14 23:12:44;;;;;;;17.45;6.50;;;19.00;87.30;;;;;;7366332;19;20086;-75
2022/10/14 23:15:13;;;;;;;10.27;6.88;;;19.00;87.40;;;;;;7365728;19;20082;-75
2022/10/14 23:17:42;;;;;;;10.02;6.72;;;19.10;87.40;;;;;;7365196;19;20025;-75
2022/10/14 23:20:12;;;;;;;12.07;7.40;;;19.10;87.40;;;;;;7365840;19;20077;-75
2022/10/14 23:22:41;;;;;;;17.33;7.65;;;19.00;87.40;;;;;;7365527;19;20007;-75
2022/10/14 23:25:11;;;;;;;18.58;7.15;;;19.00;87.40;;;;;;7383689;19;20038;-75
2022/10/14 23:27:40;;;;;;;12.13;6.75;;;19.10;87.40;;;;;;7364635;19;20025;-75
2022/10/14 23:30:12;;;;;;;14.48;6.78;;;19.10;87.40;;;;;;7364027;19;20018;-75
2022/10/14 23:32:44;;;;;;;12.55;6.53;;;19.00;87.40;;;;;;7365387;19;20531;-75
2022/10/14 23:35:12;;;;;;;16.33;7.57;;;19.10;87.50;;;;;;7364745;19;20097;-75
2022/10/14 23:37:41;;;;;;;12.73;7.57;;;19.10;87.40;;;;;;7365796;19;20090;-75
2022/10/14 23:40:11;;;;;;;12.45;8.18;;;19.10;87.50;;;;;;7387252;19;20025;-75
2022/10/14 23:42:40;;;;;;;12.20;9.45;;;19.10;87.40;;;;;;7363363;19;20090;-75
2022/10/14 23:45:12;;;;;;;15.13;8.88;;;19.10;87.50;;;;;;7364487;19;20015;-75
2022/10/14 23:47:41;;;;;;;14.63;9.35;;;19.10;87.50;;;;;;7363966;19;20061;-75
2022/10/14 23:50:10;;;;;;;22.40;8.70;;;19.10;87.50;;;;;;7364641;19;20021;-75
2022/10/14 23:52:39;;;;;;;21.75;8.75;;;19.00;87.40;;;;;;7365532;19;20721;-75
2022/10/14 23:55:09;;;;;;;15.43;8.48;;;19.10;87.60;;;;;;7387384;19;20086;-75
2022/10/14 23:57:37;;;;;;;14.00;8.13;;;19.00;87.50;;;;;;7363480;19;20040;-75
